sensor_id;sensor_type;location;lat;lon;timestamp;temperature;humidity
64939;DHT22;51453;47.738;7.420;2023-04-16T00:01:11;8.80;99.90
64939;DHT22;51453;47.738;7.420;2023-04-16T00:03:36;8.80;99.90
64939;DHT22;51453;47.738;7.420;2023-04-16T00:06:02;8.80;99.90
64939;DHT22;51453;47.738;7.420;2023-04-16T00:08:28;8.80;99.90
64939;DHT22;51453;47.738;7.420;2023-04-16T00:10:53;8.80;99.90
64939;DHT22;51453;47.738;7.420;2023-04-16T00:13:19;8.70;99.90
64939;DHT22;51453;47.738;7.420;2023-04-16T00:15:45;8.70;99.90
64939;DHT22;51453;47.738;7.420;2023-04-16T00:18:10;8.70;99.90
64939;DHT22;51453;47.738;7.420;2023-04-16T00:20:36;8.70;99.90
64939;DHT22;51453;47.738;7.420;2023-04-16T00:23:02;8.70;99.90
64939;DHT22;51453;47.738;7.420;2023-04-16T00:25:27;8.70;99.90
64939;DHT22;51453;47.738;7.420;2023-04-16T00:27:53;8.60;99.90
64939;DHT22;51453;47.738;7.420;2023-04-16T00:30:19;8.60;99.90
64939;DHT22;51453;47.738;7.420;2023-04-16T00:32:44;8.60;99.90
64939;DHT22;51453;47.738;7.420;2023-04-16T00:35:10;8.60;99.90
64939;DHT22;51453;47.738;7.420;2023-04-16T00:37:36;8.60;99.90
64939;DHT22;51453;47.738;7.420;2023-04-16T00:40:01;8.60;99.90
64939;DHT22;51453;47.738;7.420;2023-04-16T00:42:27;8.50;99.90
64939;DHT22;51453;47.738;7.420;2023-04-16T00:44:52;8.50;99.90
64939;DHT22;51453;47.738;7.420;2023-04-16T00:47:19;8.50;99.90
64939;DHT22;51453;47.738;7.420;2023-04-16T00:49:45;8.50;99.90
64939;DHT22;51453;47.738;7.420;2023-04-16T00:52:11;8.50;99.90
64939;DHT22;51453;47.738;7.420;2023-04-16T00:54:38;8.50;99.90
64939;DHT22;51453;47.738;7.420;2023-04-16T00:57:03;8.50;99.90
64939;DHT22;51453;47.738;7.420;2023-04-16T00:59:30;8.50;99.90
64939;DHT22;51453;47.738;7.420;2023-04-16T01:01:56;8.50;99.90
64939;DHT22;51453;47.738;7.420;2023-04-16T01:04:22;8.50;99.90
64939;DHT22;51453;47.738;7.420;2023-04-16T01:06:48;8.50;99.90
64939;DHT22;51453;47.738;7.420;2023-04-16T01:09:13;8.50;99.90
64939;DHT22;51453;47.738;7.420;2023-04-16T01:11:39;8.50;99.90
64939;DHT22;51453;47.738;7.420;2023-04-16T01:14:05;8.50;99.90
64939;DHT22;51453;47.738;7.420;2023-04-16T01:16:31;8.50;99.90
64939;DHT22;51453;47.738;7.420;2023-04-16T01:18:57;8.50;99.90
64939;DHT22;51453;47.738;7.420;2023-04-16T01:21:22;8.50;99.90
64939;DHT22;51453;47.738;7.420;2023-04-16T01:23:48;8.50;99.90
64939;DHT22;51453;47.738;7.420;2023-04-16T01:26:13;8.50;99.90
64939;DHT22;51453;47.738;7.420;2023-04-16T01:28:39;8.50;99.90
64939;DHT22;51453;47.738;7.420;2023-04-16T01:31:05;8.50;99.90
64939;DHT22;51453;47.738;7.420;2023-04-16T01:33:31;8.50;99.90
64939;DHT22;51453;47.738;7.420;2023-04-16T01:35:56;8.50;99.90
64939;DHT22;51453;47.738;7.420;2023-04-16T01:38:22;8.50;99.90
64939;DHT22;51453;47.738;7.420;2023-04-16T01:40:48;8.50;99.90
64939;DHT22;51453;47.738;7.420;2023-04-16T01:43:13;8.40;99.90
64939;DHT22;51453;47.738;7.420;2023-04-16T01:45:39;8.50;99.90
64939;DHT22;51453;47.738;7.420;2023-04-16T01:48:05;8.50;99.90
64939;DHT22;51453;47.738;7.420;2023-04-16T01:50:30;8.50;99.90
64939;DHT22;51453;47.738;7.420;2023-04-16T01:52:56;8.50;99.90
64939;DHT22;51453;47.738;7.420;2023-04-16T01:55:22;8.50;99.90
64939;DHT22;51453;47.738;7.420;2023-04-16T01:57:47;8.50;99.90
64939;DHT22;51453;47.738;7.420;2023-04-16T02:00:13;8.50;99.90
64939;DHT22;51453;47.738;7.420;2023-04-16T02:02:39;8.50;99.90
64939;DHT22;51453;47.738;7.420;2023-04-16T02:05:05;8.50;99.90
64939;DHT22;51453;47.738;7.420;2023-04-16T02:07:30;8.50;99.90
64939;DHT22;51453;47.738;7.420;2023-04-16T02:09:56;8.50;99.90
64939;DHT22;51453;47.738;7.420;2023-04-16T02:12:22;8.50;99.90
64939;DHT22;51453;47.738;7.420;2023-04-16T02:14:48;8.50;99.90
64939;DHT22;51453;47.738;7.420;2023-04-16T02:17:14;8.50;99.90
64939;DHT22;51453;47.738;7.420;2023-04-16T02:19:40;8.40;99.90
64939;DHT22;51453;47.738;7.420;2023-04-16T02:22:06;8.40;99.90
64939;DHT22;51453;47.738;7.420;2023-04-16T02:24:31;8.40;99.90
64939;DHT22;51453;47.738;7.420;2023-04-16T02:26:57;8.50;99.90
64939;DHT22;51453;47.738;7.420;2023-04-16T02:29:23;8.50;99.90
64939;DHT22;51453;47.738;7.420;2023-04-16T02:31:48;8.50;99.90
64939;DHT22;51453;47.738;7.420;2023-04-16T02:34:14;8.50;99.90
64939;DHT22;51453;47.738;7.420;2023-04-16T02:36:40;8.50;99.90
64939;DHT22;51453;47.738;7.420;2023-04-16T02:39:06;8.50;99.90
64939;DHT22;51453;47.738;7.420;2023-04-16T02:41:31;8.60;99.90
64939;DHT22;51453;47.738;7.420;2023-04-16T02:43:57;8.50;99.90
64939;DHT22;51453;47.738;7.420;2023-04-16T02:46:23;8.50;99.90
64939;DHT22;51453;47.738;7.420;2023-04-16T02:48:48;8.50;99.90
64939;DHT22;51453;47.738;7.420;2023-04-16T02:51:14;8.50;99.90
64939;DHT22;51453;47.738;7.420;2023-04-16T02:53:39;8.50;99.90
64939;DHT22;51453;47.738;7.420;2023-04-16T02:56:06;8.50;99.90
64939;DHT22;51453;47.738;7.420;2023-04-16T02:58:31;8.50;99.90
64939;DHT22;51453;47.738;7.420;2023-04-16T03:00:57;8.60;99.90
64939;DHT22;51453;47.738;7.420;2023-04-16T03:03:23;8.50;99.90
64939;DHT22;51453;47.738;7.420;2023-04-16T03:05:48;8.50;99.90
64939;DHT22;51453;47.738;7.420;2023-04-16T03:08:14;8.60;99.90
64939;DHT22;51453;47.738;7.420;2023-04-16T03:10:40;8.50;99.90
64939;DHT22;51453;47.738;7.420;2023-04-16T03:13:06;8.50;99.90
64939;DHT22;51453;47.738;7.420;2023-04-16T03:15:32;8.50;99.90
64939;DHT22;51453;47.738;7.420;2023-04-16T03:17:58;8.50;99.90
64939;DHT22;51453;47.738;7.420;2023-04-16T03:20:23;8.50;99.90
64939;DHT22;51453;47.738;7.420;2023-04-16T03:22:49;8.50;99.90
64939;DHT22;51453;47.738;7.420;2023-04-16T03:25:17;8.50;99.90
64939;DHT22;51453;47.738;7.420;2023-04-16T03:27:42;8.50;99.90
64939;DHT22;51453;47.738;7.420;2023-04-16T03:30:12;8.50;99.90
64939;DHT22;51453;47.738;7.420;2023-04-16T03:32:39;8.50;99.90
64939;DHT22;51453;47.738;7.420;2023-04-16T03:35:05;8.40;99.90
64939;DHT22;51453;47.738;7.420;2023-04-16T03:37:32;8.40;99.90
64939;DHT22;51453;47.738;7.420;2023-04-16T03:39:58;8.40;99.90
64939;DHT22;51453;47.738;7.420;2023-04-16T03:42:23;8.40;99.90
64939;DHT22;51453;47.738;7.420;2023-04-16T03:44:49;8.30;99.90
64939;DHT22;51453;47.738;7.420;2023-04-16T03:47:15;8.30;99.90
64939;DHT22;51453;47.738;7.420;2023-04-16T03:49:41;8.30;99.90
64939;DHT22;51453;47.738;7.420;2023-04-16T03:52:06;8.30;99.90
64939;DHT22;51453;47.738;7.420;2023-04-16T03:54:32;8.30;99.90
64939;DHT22;51453;47.738;7.420;2023-04-16T03:56:57;8.30;99.90
64939;DHT22;51453;47.738;7.420;2023-04-16T03:59:23;8.40;99.90
64939;DHT22;51453;47.738;7.420;2023-04-16T04:01:49;8.40;99.90
64939;DHT22;51453;47.738;7.420;2023-04-16T04:04:15;8.40;99.90
64939;DHT22;51453;47.738;7.420;2023-04-16T04:06:41;8.40;99.90
64939;DHT22;51453;47.738;7.420;2023-04-16T04:09:07;8.30;99.90
64939;DHT22;51453;47.738;7.420;2023-04-16T04:11:32;8.30;99.90
64939;DHT22;51453;47.738;7.420;2023-04-16T04:13:58;8.30;99.90
64939;DHT22;51453;47.738;7.420;2023-04-16T04:16:24;8.40;99.90
64939;DHT22;51453;47.738;7.420;2023-04-16T04:18:49;8.30;99.90
64939;DHT22;51453;47.738;7.420;2023-04-16T04:21:15;8.30;99.90
64939;DHT22;51453;47.738;7.420;2023-04-16T04:23:41;8.30;99.90
64939;DHT22;51453;47.738;7.420;2023-04-16T04:26:07;8.40;99.90
64939;DHT22;51453;47.738;7.420;2023-04-16T04:28:33;8.40;99.90
64939;DHT22;51453;47.738;7.420;2023-04-16T04:30:59;8.40;99.90
64939;DHT22;51453;47.738;7.420;2023-04-16T04:33:25;8.40;99.90
64939;DHT22;51453;47.738;7.420;2023-04-16T04:35:52;8.40;99.90
64939;DHT22;51453;47.738;7.420;2023-04-16T04:38:17;8.40;99.90
64939;DHT22;51453;47.738;7.420;2023-04-16T04:40:45;8.40;99.90
64939;DHT22;51453;47.738;7.420;2023-04-16T04:43:11;8.40;99.90
64939;DHT22;51453;47.738;7.420;2023-04-16T04:45:36;8.40;99.90
64939;DHT22;51453;47.738;7.420;2023-04-16T04:48:02;8.40;99.90
64939;DHT22;51453;47.738;7.420;2023-04-16T04:50:28;8.40;99.90
64939;DHT22;51453;47.738;7.420;2023-04-16T04:52:53;8.40;99.90
64939;DHT22;51453;47.738;7.420;2023-04-16T04:55:19;8.40;99.90
64939;DHT22;51453;47.738;7.420;2023-04-16T04:57:45;8.40;99.90
64939;DHT22;51453;47.738;7.420;2023-04-16T05:00:11;8.40;99.90
64939;DHT22;51453;47.738;7.420;2023-04-16T05:02:36;8.40;99.90
64939;DHT22;51453;47.738;7.420;2023-04-16T05:05:03;8.40;99.90
64939;DHT22;51453;47.738;7.420;2023-04-16T05:07:29;8.40;99.90
64939;DHT22;51453;47.738;7.420;2023-04-16T05:09:55;8.50;99.90
64939;DHT22;51453;47.738;7.420;2023-04-16T05:12:21;8.50;99.90
64939;DHT22;51453;47.738;7.420;2023-04-16T05:14:46;8.60;99.90
64939;DHT22;51453;47.738;7.420;2023-04-16T05:17:12;8.60;99.90
64939;DHT22;51453;47.738;7.420;2023-04-16T05:19:37;8.60;99.90
64939;DHT22;51453;47.738;7.420;2023-04-16T05:22:03;8.60;99.90
64939;DHT22;51453;47.738;7.420;2023-04-16T05:24:29;8.60;99.90
64939;DHT22;51453;47.738;7.420;2023-04-16T05:26:56;8.50;99.90
64939;DHT22;51453;47.738;7.420;2023-04-16T05:29:21;8.40;99.90
64939;DHT22;51453;47.738;7.420;2023-04-16T05:31:47;8.50;99.90
64939;DHT22;51453;47.738;7.420;2023-04-16T05:34:13;8.40;99.90
64939;DHT22;51453;47.738;7.420;2023-04-16T05:36:38;8.30;99.90
64939;DHT22;51453;47.738;7.420;2023-04-16T05:39:04;8.30;99.90
64939;DHT22;51453;47.738;7.420;2023-04-16T05:41:30;8.20;99.90
64939;DHT22;51453;47.738;7.420;2023-04-16T05:43:56;8.20;99.90
64939;DHT22;51453;47.738;7.420;2023-04-16T05:46:21;8.20;99.90
64939;DHT22;51453;47.738;7.420;2023-04-16T05:48:47;8.20;99.90
64939;DHT22;51453;47.738;7.420;2023-04-16T05:51:12;8.20;99.90
64939;DHT22;51453;47.738;7.420;2023-04-16T05:53:38;8.20;99.90
64939;DHT22;51453;47.738;7.420;2023-04-16T05:56:04;8.20;99.90
64939;DHT22;51453;47.738;7.420;2023-04-16T05:58:29;8.10;99.90
64939;DHT22;51453;47.738;7.420;2023-04-16T06:00:55;8.00;99.90
64939;DHT22;51453;47.738;7.420;2023-04-16T06:03:21;8.00;99.90
64939;DHT22;51453;47.738;7.420;2023-04-16T06:05:46;8.10;99.90
64939;DHT22;51453;47.738;7.420;2023-04-16T06:08:12;8.00;99.90
64939;DHT22;51453;47.738;7.420;2023-04-16T06:10:38;8.10;99.90
64939;DHT22;51453;47.738;7.420;2023-04-16T06:13:04;8.00;99.90
64939;DHT22;51453;47.738;7.420;2023-04-16T06:15:29;8.00;99.90
64939;DHT22;51453;47.738;7.420;2023-04-16T06:17:55;8.00;99.90
64939;DHT22;51453;47.738;7.420;2023-04-16T06:20:21;8.00;99.90
64939;DHT22;51453;47.738;7.420;2023-04-16T06:22:47;7.90;99.90
64939;DHT22;51453;47.738;7.420;2023-04-16T06:25:12;7.90;99.90
64939;DHT22;51453;47.738;7.420;2023-04-16T06:27:38;8.00;99.90
64939;DHT22;51453;47.738;7.420;2023-04-16T06:30:11;8.00;99.90
64939;DHT22;51453;47.738;7.420;2023-04-16T06:32:36;8.00;99.90
64939;DHT22;51453;47.738;7.420;2023-04-16T06:35:02;8.00;99.90
64939;DHT22;51453;47.738;7.420;2023-04-16T06:37:28;8.10;99.90
64939;DHT22;51453;47.738;7.420;2023-04-16T06:39:53;8.10;99.90
64939;DHT22;51453;47.738;7.420;2023-04-16T06:42:19;8.10;99.90
64939;DHT22;51453;47.738;7.420;2023-04-16T06:44:45;8.10;99.90
64939;DHT22;51453;47.738;7.420;2023-04-16T06:47:11;8.10;99.90
64939;DHT22;51453;47.738;7.420;2023-04-16T06:49:36;8.10;99.90
64939;DHT22;51453;47.738;7.420;2023-04-16T06:52:03;8.10;99.90
64939;DHT22;51453;47.738;7.420;2023-04-16T06:54:29;8.20;99.90
64939;DHT22;51453;47.738;7.420;2023-04-16T06:56:55;8.20;99.90
64939;DHT22;51453;47.738;7.420;2023-04-16T06:59:21;8.20;99.90
64939;DHT22;51453;47.738;7.420;2023-04-16T07:01:46;8.30;99.90
64939;DHT22;51453;47.738;7.420;2023-04-16T07:04:12;8.30;99.90
64939;DHT22;51453;47.738;7.420;2023-04-16T07:06:37;8.30;99.90
64939;DHT22;51453;47.738;7.420;2023-04-16T07:09:03;8.40;99.90
64939;DHT22;51453;47.738;7.420;2023-04-16T07:11:29;8.40;99.90
64939;DHT22;51453;47.738;7.420;2023-04-16T07:13:54;8.30;99.90
64939;DHT22;51453;47.738;7.420;2023-04-16T07:16:22;8.30;99.90
64939;DHT22;51453;47.738;7.420;2023-04-16T07:18:47;8.40;99.90
64939;DHT22;51453;47.738;7.420;2023-04-16T07:21:13;8.40;99.90
64939;DHT22;51453;47.738;7.420;2023-04-16T07:23:39;8.50;99.90
64939;DHT22;51453;47.738;7.420;2023-04-16T07:26:05;8.50;99.90
64939;DHT22;51453;47.738;7.420;2023-04-16T07:28:31;8.60;99.90
64939;DHT22;51453;47.738;7.420;2023-04-16T07:30:56;8.70;99.90
64939;DHT22;51453;47.738;7.420;2023-04-16T07:33:23;8.70;99.90
64939;DHT22;51453;47.738;7.420;2023-04-16T07:35:48;8.80;99.90
64939;DHT22;51453;47.738;7.420;2023-04-16T07:38:15;8.70;99.90
64939;DHT22;51453;47.738;7.420;2023-04-16T07:40:41;8.70;99.90
64939;DHT22;51453;47.738;7.420;2023-04-16T07:43:08;8.70;99.90
64939;DHT22;51453;47.738;7.420;2023-04-16T07:45:34;8.70;99.90
64939;DHT22;51453;47.738;7.420;2023-04-16T07:48:00;8.80;99.90
64939;DHT22;51453;47.738;7.420;2023-04-16T07:50:26;8.80;99.90
64939;DHT22;51453;47.738;7.420;2023-04-16T07:52:52;8.90;99.90
64939;DHT22;51453;47.738;7.420;2023-04-16T07:55:17;8.90;99.90
64939;DHT22;51453;47.738;7.420;2023-04-16T07:57:43;8.90;99.90
64939;DHT22;51453;47.738;7.420;2023-04-16T08:00:09;8.90;99.90
64939;DHT22;51453;47.738;7.420;2023-04-16T08:02:35;9.00;99.90
64939;DHT22;51453;47.738;7.420;2023-04-16T08:05:01;9.00;99.90
64939;DHT22;51453;47.738;7.420;2023-04-16T08:07:27;9.00;99.90
64939;DHT22;51453;47.738;7.420;2023-04-16T08:09:53;9.10;99.90
64939;DHT22;51453;47.738;7.420;2023-04-16T08:12:19;9.10;99.90
64939;DHT22;51453;47.738;7.420;2023-04-16T08:14:45;9.20;99.90
64939;DHT22;51453;47.738;7.420;2023-04-16T08:17:12;9.10;99.90
64939;DHT22;51453;47.738;7.420;2023-04-16T08:19:38;9.10;99.90
64939;DHT22;51453;47.738;7.420;2023-04-16T08:22:04;9.10;99.90
64939;DHT22;51453;47.738;7.420;2023-04-16T08:24:30;9.00;99.90
64939;DHT22;51453;47.738;7.420;2023-04-16T08:26:56;9.00;99.90
64939;DHT22;51453;47.738;7.420;2023-04-16T08:29:21;9.00;99.90
64939;DHT22;51453;47.738;7.420;2023-04-16T08:31:50;9.10;99.90
64939;DHT22;51453;47.738;7.420;2023-04-16T08:34:16;9.20;99.90
64939;DHT22;51453;47.738;7.420;2023-04-16T08:36:42;9.30;99.90
64939;DHT22;51453;47.738;7.420;2023-04-16T08:39:08;9.30;99.90
64939;DHT22;51453;47.738;7.420;2023-04-16T08:41:35;9.50;99.90
64939;DHT22;51453;47.738;7.420;2023-04-16T08:44:08;9.50;99.90
64939;DHT22;51453;47.738;7.420;2023-04-16T08:46:36;9.70;99.90
64939;DHT22;51453;47.738;7.420;2023-04-16T08:49:05;9.60;99.90
64939;DHT22;51453;47.738;7.420;2023-04-16T08:51:33;9.60;99.90
64939;DHT22;51453;47.738;7.420;2023-04-16T08:54:04;9.60;99.90
64939;DHT22;51453;47.738;7.420;2023-04-16T08:56:35;9.60;99.90
64939;DHT22;51453;47.738;7.420;2023-04-16T08:59:02;9.60;99.90
64939;DHT22;51453;47.738;7.420;2023-04-16T09:01:31;9.60;99.90
64939;DHT22;51453;47.738;7.420;2023-04-16T09:03:58;9.60;99.90
64939;DHT22;51453;47.738;7.420;2023-04-16T09:06:26;9.60;99.90
64939;DHT22;51453;47.738;7.420;2023-04-16T09:08:53;9.60;99.90
64939;DHT22;51453;47.738;7.420;2023-04-16T09:11:19;9.70;99.90
64939;DHT22;51453;47.738;7.420;2023-04-16T09:13:46;9.70;99.90
64939;DHT22;51453;47.738;7.420;2023-04-16T09:16:13;9.70;99.90
64939;DHT22;51453;47.738;7.420;2023-04-16T09:18:39;9.80;99.90
64939;DHT22;51453;47.738;7.420;2023-04-16T09:21:04;9.80;99.90
64939;DHT22;51453;47.738;7.420;2023-04-16T09:23:32;9.80;99.90
64939;DHT22;51453;47.738;7.420;2023-04-16T09:25:58;9.80;99.90
64939;DHT22;51453;47.738;7.420;2023-04-16T09:28:56;9.80;99.90
64939;DHT22;51453;47.738;7.420;2023-04-16T09:31:22;9.70;99.90
64939;DHT22;51453;47.738;7.420;2023-04-16T09:34:01;9.80;99.90
64939;DHT22;51453;47.738;7.420;2023-04-16T09:36:27;9.80;99.90
64939;DHT22;51453;47.738;7.420;2023-04-16T09:38:54;9.70;99.90
64939;DHT22;51453;47.738;7.420;2023-04-16T09:41:27;9.80;99.90
64939;DHT22;51453;47.738;7.420;2023-04-16T09:43:58;9.80;99.90
64939;DHT22;51453;47.738;7.420;2023-04-16T09:46:32;9.70;99.90
64939;DHT22;51453;47.738;7.420;2023-04-16T09:49:07;9.60;99.90
64939;DHT22;51453;47.738;7.420;2023-04-16T09:51:39;9.60;99.90
64939;DHT22;51453;47.738;7.420;2023-04-16T09:54:05;9.60;99.90
64939;DHT22;51453;47.738;7.420;2023-04-16T09:56:31;9.60;99.90
64939;DHT22;51453;47.738;7.420;2023-04-16T09:58:58;9.50;99.90
64939;DHT22;51453;47.738;7.420;2023-04-16T10:01:24;9.50;99.90
64939;DHT22;51453;47.738;7.420;2023-04-16T10:03:53;9.50;99.90
64939;DHT22;51453;47.738;7.420;2023-04-16T10:06:21;9.50;99.90
64939;DHT22;51453;47.738;7.420;2023-04-16T10:08:52;9.50;99.90
64939;DHT22;51453;47.738;7.420;2023-04-16T10:11:19;9.30;99.90
64939;DHT22;51453;47.738;7.420;2023-04-16T10:13:45;9.40;99.90
64939;DHT22;51453;47.738;7.420;2023-04-16T10:16:11;9.40;99.90
64939;DHT22;51453;47.738;7.420;2023-04-16T10:18:38;9.40;99.90
64939;DHT22;51453;47.738;7.420;2023-04-16T10:21:05;9.30;99.90
64939;DHT22;51453;47.738;7.420;2023-04-16T10:23:31;9.30;99.90
64939;DHT22;51453;47.738;7.420;2023-04-16T10:25:58;9.30;99.90
64939;DHT22;51453;47.738;7.420;2023-04-16T10:28:24;9.20;99.90
64939;DHT22;51453;47.738;7.420;2023-04-16T10:30:52;9.10;99.90
64939;DHT22;51453;47.738;7.420;2023-04-16T10:33:27;9.00;99.90
64939;DHT22;51453;47.738;7.420;2023-04-16T10:38:32;9.10;99.90
64939;DHT22;51453;47.738;7.420;2023-04-16T10:41:04;9.10;99.90
64939;DHT22;51453;47.738;7.420;2023-04-16T10:43:37;9.10;99.90
64939;DHT22;51453;47.738;7.420;2023-04-16T10:46:21;9.20;99.90
64939;DHT22;51453;47.738;7.420;2023-04-16T10:48:48;9.20;99.90
64939;DHT22;51453;47.738;7.420;2023-04-16T10:51:26;9.20;99.90
64939;DHT22;51453;47.738;7.420;2023-04-16T10:53:54;9.20;99.90
64939;DHT22;51453;47.738;7.420;2023-04-16T10:56:24;9.20;99.90
64939;DHT22;51453;47.738;7.420;2023-04-16T10:58:55;9.20;99.90
64939;DHT22;51453;47.738;7.420;2023-04-16T11:01:35;9.20;99.90
64939;DHT22;51453;47.738;7.420;2023-04-16T11:15:03;9.00;99.90
64939;DHT22;51453;47.738;7.420;2023-04-16T11:17:38;9.00;99.90
64939;DHT22;51453;47.738;7.420;2023-04-16T11:20:09;8.90;99.90
64939;DHT22;51453;47.738;7.420;2023-04-16T11:22:40;8.80;99.90
64939;DHT22;51453;47.738;7.420;2023-04-16T11:25:06;8.80;99.90
64939;DHT22;51453;47.738;7.420;2023-04-16T11:27:32;8.80;99.90
64939;DHT22;51453;47.738;7.420;2023-04-16T11:30:06;8.90;99.90
64939;DHT22;51453;47.738;7.420;2023-04-16T11:32:35;8.90;99.90
64939;DHT22;51453;47.738;7.420;2023-04-16T11:35:02;8.90;99.90
64939;DHT22;51453;47.738;7.420;2023-04-16T11:37:36;8.90;99.90
64939;DHT22;51453;47.738;7.420;2023-04-16T11:40:06;8.90;99.90
64939;DHT22;51453;47.738;7.420;2023-04-16T11:42:36;8.90;99.90
64939;DHT22;51453;47.738;7.420;2023-04-16T11:45:03;9.00;99.90
64939;DHT22;51453;47.738;7.420;2023-04-16T11:47:30;9.00;99.90
64939;DHT22;51453;47.738;7.420;2023-04-16T11:49:57;8.90;99.90
64939;DHT22;51453;47.738;7.420;2023-04-16T11:52:26;8.90;99.90
64939;DHT22;51453;47.738;7.420;2023-04-16T11:54:52;8.80;99.90
64939;DHT22;51453;47.738;7.420;2023-04-16T11:57:26;8.90;99.90
64939;DHT22;51453;47.738;7.420;2023-04-16T11:59:52;8.80;99.90
64939;DHT22;51453;47.738;7.420;2023-04-16T12:02:39;8.80;99.90
64939;DHT22;51453;47.738;7.420;2023-04-16T12:05:25;8.70;99.90
64939;DHT22;51453;47.738;7.420;2023-04-16T12:07:57;8.60;99.90
64939;DHT22;51453;47.738;7.420;2023-04-16T12:10:24;8.60;99.90
64939;DHT22;51453;47.738;7.420;2023-04-16T12:12:50;8.60;99.90
64939;DHT22;51453;47.738;7.420;2023-04-16T12:15:16;8.60;99.90
64939;DHT22;51453;47.738;7.420;2023-04-16T12:17:43;8.70;99.90
64939;DHT22;51453;47.738;7.420;2023-04-16T12:20:13;8.70;99.90
64939;DHT22;51453;47.738;7.420;2023-04-16T12:22:47;8.70;99.90
64939;DHT22;51453;47.738;7.420;2023-04-16T12:25:15;8.60;99.90
64939;DHT22;51453;47.738;7.420;2023-04-16T12:27:44;8.60;99.90
64939;DHT22;51453;47.738;7.420;2023-04-16T12:30:18;8.60;99.90
64939;DHT22;51453;47.738;7.420;2023-04-16T12:32:46;8.60;99.90
64939;DHT22;51453;47.738;7.420;2023-04-16T12:35:13;8.70;99.90
64939;DHT22;51453;47.738;7.420;2023-04-16T12:37:46;8.90;99.90
64939;DHT22;51453;47.738;7.420;2023-04-16T12:40:11;9.00;99.90
64939;DHT22;51453;47.738;7.420;2023-04-16T12:42:37;9.00;99.90
64939;DHT22;51453;47.738;7.420;2023-04-16T12:45:04;9.00;99.90
64939;DHT22;51453;47.738;7.420;2023-04-16T12:47:33;9.00;99.90
64939;DHT22;51453;47.738;7.420;2023-04-16T12:49:59;9.10;99.90
64939;DHT22;51453;47.738;7.420;2023-04-16T12:52:25;9.20;99.90
64939;DHT22;51453;47.738;7.420;2023-04-16T12:54:51;9.10;99.90
64939;DHT22;51453;47.738;7.420;2023-04-16T12:57:17;9.20;99.90
64939;DHT22;51453;47.738;7.420;2023-04-16T12:59:43;9.20;99.90
64939;DHT22;51453;47.738;7.420;2023-04-16T13:02:08;9.30;99.90
64939;DHT22;51453;47.738;7.420;2023-04-16T13:04:34;9.30;99.90
64939;DHT22;51453;47.738;7.420;2023-04-16T13:07:00;9.40;99.90
64939;DHT22;51453;47.738;7.420;2023-04-16T13:09:26;9.40;99.90
64939;DHT22;51453;47.738;7.420;2023-04-16T13:11:52;9.40;99.90
64939;DHT22;51453;47.738;7.420;2023-04-16T13:14:19;9.50;99.90
64939;DHT22;51453;47.738;7.420;2023-04-16T13:16:45;9.50;99.90
64939;DHT22;51453;47.738;7.420;2023-04-16T13:19:11;9.50;99.90
64939;DHT22;51453;47.738;7.420;2023-04-16T13:21:36;9.60;99.90
64939;DHT22;51453;47.738;7.420;2023-04-16T13:24:02;9.60;99.90
64939;DHT22;51453;47.738;7.420;2023-04-16T13:26:28;9.60;99.90
64939;DHT22;51453;47.738;7.420;2023-04-16T13:28:53;9.60;99.90
64939;DHT22;51453;47.738;7.420;2023-04-16T13:31:20;9.50;99.90
64939;DHT22;51453;47.738;7.420;2023-04-16T13:33:46;9.60;99.90
64939;DHT22;51453;47.738;7.420;2023-04-16T13:36:12;9.60;99.90
64939;DHT22;51453;47.738;7.420;2023-04-16T13:38:38;9.80;99.90
64939;DHT22;51453;47.738;7.420;2023-04-16T13:41:04;9.90;99.90
64939;DHT22;51453;47.738;7.420;2023-04-16T13:43:30;10.00;99.90
64939;DHT22;51453;47.738;7.420;2023-04-16T13:45:57;9.90;99.90
64939;DHT22;51453;47.738;7.420;2023-04-16T13:48:23;9.80;99.90
64939;DHT22;51453;47.738;7.420;2023-04-16T13:50:48;9.90;99.90
64939;DHT22;51453;47.738;7.420;2023-04-16T13:53:14;10.00;99.90
64939;DHT22;51453;47.738;7.420;2023-04-16T13:55:40;10.10;99.90
64939;DHT22;51453;47.738;7.420;2023-04-16T13:58:06;10.20;99.90
64939;DHT22;51453;47.738;7.420;2023-04-16T14:00:32;10.30;99.90
64939;DHT22;51453;47.738;7.420;2023-04-16T14:02:57;10.30;99.90
64939;DHT22;51453;47.738;7.420;2023-04-16T14:05:23;10.40;99.90
64939;DHT22;51453;47.738;7.420;2023-04-16T14:07:49;10.50;99.90
64939;DHT22;51453;47.738;7.420;2023-04-16T14:10:15;10.50;99.90
64939;DHT22;51453;47.738;7.420;2023-04-16T14:12:42;10.80;99.90
64939;DHT22;51453;47.738;7.420;2023-04-16T14:15:08;10.80;99.90
64939;DHT22;51453;47.738;7.420;2023-04-16T14:17:35;11.20;99.90
64939;DHT22;51453;47.738;7.420;2023-04-16T14:20:02;11.60;99.90
64939;DHT22;51453;47.738;7.420;2023-04-16T14:22:29;11.70;99.90
64939;DHT22;51453;47.738;7.420;2023-04-16T14:24:55;12.10;99.90
64939;DHT22;51453;47.738;7.420;2023-04-16T14:27:20;12.50;99.90
64939;DHT22;51453;47.738;7.420;2023-04-16T14:29:46;12.80;99.90
64939;DHT22;51453;47.738;7.420;2023-04-16T14:32:12;12.70;99.90
64939;DHT22;51453;47.738;7.420;2023-04-16T14:34:37;12.70;99.90
64939;DHT22;51453;47.738;7.420;2023-04-16T14:37:03;12.70;99.90
64939;DHT22;51453;47.738;7.420;2023-04-16T14:39:29;12.50;99.90
64939;DHT22;51453;47.738;7.420;2023-04-16T14:41:55;12.80;99.90
64939;DHT22;51453;47.738;7.420;2023-04-16T14:44:22;12.50;99.90
64939;DHT22;51453;47.738;7.420;2023-04-16T14:46:48;12.70;99.90
64939;DHT22;51453;47.738;7.420;2023-04-16T14:49:13;12.50;99.90
64939;DHT22;51453;47.738;7.420;2023-04-16T14:51:39;12.50;99.90
64939;DHT22;51453;47.738;7.420;2023-04-16T14:54:06;12.70;99.90
64939;DHT22;51453;47.738;7.420;2023-04-16T14:56:31;13.20;99.90
64939;DHT22;51453;47.738;7.420;2023-04-16T14:58:57;14.20;99.90
64939;DHT22;51453;47.738;7.420;2023-04-16T15:01:22;14.80;99.90
64939;DHT22;51453;47.738;7.420;2023-04-16T15:03:48;15.70;99.90
64939;DHT22;51453;47.738;7.420;2023-04-16T15:06:14;16.00;99.90
64939;DHT22;51453;47.738;7.420;2023-04-16T15:08:40;16.10;99.90
64939;DHT22;51453;47.738;7.420;2023-04-16T15:11:06;15.70;99.90
64939;DHT22;51453;47.738;7.420;2023-04-16T15:13:32;15.00;99.90
64939;DHT22;51453;47.738;7.420;2023-04-16T15:16:01;14.50;99.90
64939;DHT22;51453;47.738;7.420;2023-04-16T15:18:27;14.30;99.90
64939;DHT22;51453;47.738;7.420;2023-04-16T15:20:54;14.20;99.90
64939;DHT22;51453;47.738;7.420;2023-04-16T15:23:19;13.70;99.90
64939;DHT22;51453;47.738;7.420;2023-04-16T15:25:46;13.50;99.90
64939;DHT22;51453;47.738;7.420;2023-04-16T15:28:11;12.90;99.90
64939;DHT22;51453;47.738;7.420;2023-04-16T15:30:40;12.70;99.90
64939;DHT22;51453;47.738;7.420;2023-04-16T15:33:07;12.30;99.90
64939;DHT22;51453;47.738;7.420;2023-04-16T15:35:34;11.90;99.90
64939;DHT22;51453;47.738;7.420;2023-04-16T15:38:00;11.70;99.90
64939;DHT22;51453;47.738;7.420;2023-04-16T15:40:25;11.50;99.90
64939;DHT22;51453;47.738;7.420;2023-04-16T15:42:51;11.40;99.90
64939;DHT22;51453;47.738;7.420;2023-04-16T15:45:17;11.10;99.90
64939;DHT22;51453;47.738;7.420;2023-04-16T15:47:42;11.00;99.90
64939;DHT22;51453;47.738;7.420;2023-04-16T15:50:18;11.00;99.90
64939;DHT22;51453;47.738;7.420;2023-04-16T15:52:45;10.90;99.90
64939;DHT22;51453;47.738;7.420;2023-04-16T15:55:10;10.80;99.90